Rudd, North Carolina
Current Conditions -  °F | °C
As of 7:54 PM on Saturday 22 Nov 2014 (Local Time) from KBUY Reporting Station
Clear Clear  
Wind Chill:   Ceiling: Unl
Heat Index:   Visibility: 10mi
Dew Point: -6°   Wind: 0mph
Humidity: 55%   Direction: NA
Pressure: 30.34"   Gusts: NA
Location:  36.2136°N, 79.6775°W
Report Text: KBUY 230054Z AUTO 00000KT 10SM CLR 02/M06 A3034 RMK AO2 SLP280 T00221061
Loading
Personal Weather Stations






























Interactive Weather Map New forecast layout! Learn more

10-Day Weather Forecast

Advertisements
Track Severe Weather on mobile